Time;durP1;ratioP1;P1;durP2;ratioP2;P2;SDS_P1;SDS_P2;PMS_P1;PMS_P2;Temp;Humidity;BMP_temperature;BMP_pressure;BME280_temperature;BME280_humidity;BME280_pressure;Samples;Min_cycle;Max_cycle;Signal;HPM_P1;HPM_P2
2021/12/20 00:01:17;;;;;;;42.60;21.97;;;;;;;1.06;86.59;96781.00;1691378;85;21022;-80
2021/12/20 00:03:44;;;;;;;43.38;21.42;;;;;;;1.12;87.01;96777.00;1718372;83;21019;-80
2021/12/20 00:06:11;;;;;;;36.28;21.12;;;;;;;1.19;86.99;96763.45;1729691;83;21472;-81
2021/12/20 00:08:37;;;;;;;40.75;21.48;;;;;;;1.23;86.84;96765.14;1730669;83;21015;-80
2021/12/20 00:11:04;;;;;;;37.58;20.60;;;;;;;1.26;86.98;96771.64;1725913;82;20991;-80
2021/12/20 00:13:31;;;;;;;41.55;22.50;;;;;;;1.25;86.96;96777.72;1691479;85;21029;-80
2021/12/20 00:15:58;;;;;;;37.83;20.70;;;;;;;1.27;87.04;96775.09;1701470;84;21437;-80
2021/12/20 00:18:24;;;;;;;38.15;20.27;;;;;;;1.31;87.35;96765.92;1724914;83;21029;-80
2021/12/20 00:20:51;;;;;;;38.92;20.72;;;;;;;1.30;87.26;96764.17;1738982;81;21068;-80
2021/12/20 00:23:17;;;;;;;41.15;21.87;;;;;;;1.35;87.42;96759.34;1767122;81;21006;-79
2021/12/20 00:25:48;;;;;;;39.23;21.05;;;;;;;1.31;87.20;96757.22;1767254;81;21021;-80
2021/12/20 00:28:12;;;;;;;39.50;22.17;;;;;;;1.31;87.12;96759.39;1766897;81;20980;-81
2021/12/20 00:30:39;;;;;;;42.43;23.12;;;;;;;1.33;86.98;96766.34;1767240;81;21038;-80
2021/12/20 00:33:06;;;;;;;48.65;23.27;;;;;;;1.29;86.72;96762.91;1762562;80;20977;-80
2021/12/20 00:35:32;;;;;;;39.70;22.52;;;;;;;1.26;86.52;96767.73;1736601;83;21092;-80
2021/12/20 00:40:44;;;;;;;37.63;20.82;;;;;;;1.25;86.82;96767.28;1738953;81;21036;-80
2021/12/20 00:43:10;;;;;;;41.28;22.15;;;;;;;1.25;86.99;96758.61;1750258;81;21359;-81
2021/12/20 00:45:38;;;;;;;40.73;22.52;;;;;;;1.24;86.83;96768.63;1749581;81;21087;-80
2021/12/20 00:48:05;;;;;;;38.85;21.15;;;;;;;1.23;86.97;96759.05;1750029;81;21037;-80
2021/12/20 00:50:33;;;;;;;44.35;22.70;;;;;;;1.23;86.77;96738.17;1749594;82;21478;-80
2021/12/20 00:53:01;;;;;;;36.03;20.82;;;;;;;1.22;86.67;96739.94;1773773;80;21422;-80
2021/12/20 00:55:29;;;;;;;38.67;20.88;;;;;;;1.20;86.51;96736.92;1780776;80;21458;-80
2021/12/20 00:57:59;;;;;;;40.33;21.70;;;;;;;1.20;86.76;96740.38;1780504;80;21129;-80
2021/12/20 01:00:31;;;;;;;40.40;21.27;;;;;;;1.18;86.92;96735.20;1780734;80;21017;-80
2021/12/20 01:03:00;;;;;;;38.90;21.75;;;;;;;1.20;86.88;96740.84;1778873;79;21020;-80
2021/12/20 01:05:28;;;;;;;35.83;20.45;;;;;;;1.21;86.68;96736.03;1780535;80;20953;-80
2021/12/20 01:07:58;;;;;;;41.65;20.82;;;;;;;1.16;86.67;96727.81;1765012;80;21013;-81
2021/12/20 01:10:25;;;;;;;38.23;20.80;;;;;;;1.15;86.66;96730.01;1750000;82;21004;-80
2021/12/20 01:12:54;;;;;;;38.25;21.05;;;;;;;1.17;86.77;96728.69;1749829;81;21406;-81
2021/12/20 01:15:33;;;;;;;36.80;20.35;;;;;;;1.17;86.66;96735.22;1750675;80;20950;-80
2021/12/20 01:18:01;;;;;;;38.42;22.00;;;;;;;1.15;86.88;96728.70;1780342;80;21010;-79
2021/12/20 01:20:28;;;;;;;38.83;20.75;;;;;;;1.16;87.33;96730.88;1780650;80;20981;-80
2021/12/20 01:22:55;;;;;;;24.27;13.83;;;;;;;1.11;87.60;96730.05;1780656;80;21033;-79
2021/12/20 01:25:23;;;;;;;34.95;18.82;;;;;;;1.12;88.67;96730.03;1780850;80;20960;-79
2021/12/20 01:27:51;;;;;;;36.48;19.42;;;;;;;1.22;87.76;96731.23;1789460;79;20993;-80
2021/12/20 01:30:22;;;;;;;35.13;18.55;;;;;;;1.25;87.76;96733.34;1780726;80;20981;-79
2021/12/20 01:32:49;;;;;;;35.23;17.98;;;;;;;1.30;87.77;96726.78;1780431;80;21093;-79
2021/12/20 01:35:18;;;;;;;25.15;14.07;;;;;;;1.34;88.02;96733.70;1780639;80;21462;-80
2021/12/20 01:37:45;;;;;;;23.05;12.18;;;;;;;1.38;88.00;96728.86;1780459;80;21013;-80
2021/12/20 01:40:17;;;;;;;13.32;7.20;;;;;;;1.43;88.61;96736.19;1752287;80;21028;-80
2021/12/20 01:42:45;;;;;;;10.88;6.37;;;;;;;1.56;89.40;96729.47;1730236;82;20992;-80
2021/12/20 01:45:16;;;;;;;7.75;5.50;;;;;;;1.69;89.66;96740.17;1726970;83;20972;-80
2021/12/20 01:47:47;;;;;;;9.45;5.37;;;;;;;1.80;89.61;96758.31;1725439;83;21048;-80
2021/12/20 01:50:24;;;;;;;7.12;4.70;;;;;;;1.89;89.54;96749.89;1716686;82;20974;-80
2021/12/20 01:52:43;;;;;;;6.83;4.60;;;;;;;1.93;89.39;96762.91;1729804;82;21447;-80
2021/12/20 01:55:20;;;;;;;8.08;4.65;;;;;;;1.96;89.24;96771.14;1746086;82;20981;-80
2021/12/20 01:57:48;;;;;;;7.03;3.92;;;;;;;1.97;88.92;96764.59;1746269;82;21016;-80
2021/12/20 02:00:20;;;;;;;5.87;3.72;;;;;;;1.99;88.43;96774.99;1746481;82;21037;-80
2021/12/20 02:02:57;;;;;;;6.22;4.20;;;;;;;1.97;88.46;96783.31;1746290;82;21005;-80
2021/12/20 02:05:28;;;;;;;5.78;4.17;;;;;;;1.97;88.12;96794.64;1727205;82;20977;-80
2021/12/20 02:07:52;;;;;;;6.92;3.98;;;;;;;1.93;87.67;96789.03;1752114;82;20972;-80
2021/12/20 02:10:18;;;;;;;4.50;3.50;;;;;;;1.89;87.59;96793.88;1753955;82;21065;-80
2021/12/20 02:12:46;;;;;;;5.10;3.50;;;;;;;1.85;87.22;96797.42;1750419;82;21008;-80
2021/12/20 02:15:13;;;;;;;6.28;3.70;;;;;;;1.81;87.23;96807.48;1746319;82;21041;-80
2021/12/20 02:17:41;;;;;;;6.15;4.00;;;;;;;1.76;87.18;96805.38;1746480;82;20985;-80
2021/12/20 02:20:25;;;;;;;6.00;3.70;;;;;;;1.76;87.10;96810.60;1746219;82;21001;-80
2021/12/20 02:22:58;;;;;;;6.55;3.62;;;;;;;1.76;87.08;96822.36;1734034;82;21005;-79
2021/12/20 02:25:27;;;;;;;6.45;4.17;;;;;;;1.71;86.93;96820.66;1716855;83;21588;-79
2021/12/20 02:27:55;;;;;;;6.60;4.03;;;;;;;1.71;87.04;96829.81;1716853;83;21296;-80
2021/12/20 02:38:31;;;;;;;5.55;3.90;;;;;;;1.65;86.46;96829.90;1746047;82;21016;-79
2021/12/20 02:41:04;;;;;;;6.90;3.92;;;;;;;1.61;86.41;96819.52;1746493;80;20969;-78
2021/12/20 02:43:34;;;;;;;6.08;4.12;;;;;;;1.58;86.42;96826.95;1765557;81;21574;-79
2021/12/20 02:45:58;;;;;;;6.10;4.15;;;;;;;1.60;86.25;96828.22;1766875;81;21013;-79
2021/12/20 02:48:25;;;;;;;6.55;3.72;;;;;;;1.57;86.25;96827.39;1739246;81;21036;-79
2021/12/20 02:50:56;;;;;;;5.95;3.87;;;;;;;1.54;85.50;96828.72;1736379;83;21002;-79
2021/12/20 02:53:23;;;;;;;6.92;4.33;;;;;;;1.51;84.53;96830.51;1736911;83;21009;-79
2021/12/20 02:55:49;;;;;;;6.58;4.40;;;;;;;1.47;84.86;96834.91;1736921;83;21067;-79
2021/12/20 02:58:16;;;;;;;7.12;3.52;;;;;;;1.46;85.02;96830.58;1740535;81;21036;-79
2021/12/20 03:00:43;;;;;;;6.78;4.15;;;;;;;1.41;84.62;96841.52;1766828;81;21073;-80
2021/12/20 03:03:10;;;;;;;6.75;4.40;;;;;;;1.42;84.61;96851.08;1767024;81;21064;-80
2021/12/20 03:05:37;;;;;;;7.62;4.05;;;;;;;1.37;84.10;96855.03;1744624;81;21371;-80
2021/12/20 03:08:05;;;;;;;6.42;3.67;;;;;;;1.39;84.64;96847.18;1736728;83;21415;-80
2021/12/20 03:10:32;;;;;;;5.92;3.67;;;;;;;1.34;83.44;96855.08;1742331;81;20962;-80
2021/12/20 03:12:59;;;;;;;5.28;3.33;;;;;;;1.33;83.31;96862.50;1766851;81;21391;-80
2021/12/20 03:15:26;;;;;;;5.80;3.40;;;;;;;1.37;84.00;96866.77;1767133;81;20993;-80
2021/12/20 03:17:57;;;;;;;5.03;3.27;;;;;;;1.37;84.24;96869.38;1767127;81;21105;-81
2021/12/20 03:20:24;;;;;;;6.28;3.98;;;;;;;1.25;83.60;96880.82;1766712;81;21025;-80
2021/12/20 03:22:50;;;;;;;6.47;3.75;;;;;;;1.10;83.97;96881.86;1754350;81;20984;-80
2021/12/20 03:25:18;;;;;;;6.17;3.08;;;;;;;1.11;83.87;96878.79;1736691;82;21028;-80
2021/12/20 03:27:44;;;;;;;4.95;3.02;;;;;;;1.06;83.93;96878.84;1736869;82;21024;-80
2021/12/20 03:30:13;;;;;;;5.58;2.92;;;;;;;0.98;82.96;96883.27;1736797;83;21009;-80
2021/12/20 03:32:40;;;;;;;5.10;3.37;;;;;;;0.88;83.14;96887.72;1736530;82;21049;-81
2021/12/20 03:35:08;;;;;;;4.90;2.95;;;;;;;0.83;82.94;96884.28;1749881;81;20990;-80
2021/12/20 03:37:35;;;;;;;4.85;2.75;;;;;;;0.83;83.02;96890.81;1765868;81;21006;-81
2021/12/20 03:40:03;;;;;;;4.60;2.90;;;;;;;0.79;83.38;96886.91;1699778;84;21010;-81
2021/12/20 03:42:31;;;;;;;4.75;3.22;;;;;;;0.77;83.58;96879.55;1718021;83;21474;-80
2021/12/20 03:44:57;;;;;;;4.97;2.95;;;;;;;0.71;84.05;96892.62;1699945;84;21054;-81
2021/12/20 03:47:25;;;;;;;4.87;2.75;;;;;;;0.72;84.14;96888.28;1708276;83;21091;-80
2021/12/20 03:49:51;;;;;;;3.90;2.55;;;;;;;0.71;84.19;96899.14;1709975;84;21016;-80
2021/12/20 03:52:18;;;;;;;4.92;3.00;;;;;;;0.66;84.58;96910.05;1709976;84;21004;-80
2021/12/20 03:54:44;;;;;;;6.10;2.80;;;;;;;0.65;84.21;96906.59;1703757;84;21054;-81
2021/12/20 03:57:10;;;;;;;4.47;2.55;;;;;;;0.62;84.02;96901.39;1681658;85;21477;-80
2021/12/20 03:59:37;;;;;;;4.53;2.75;;;;;;;0.60;84.15;96902.28;1681785;85;21035;-80
2021/12/20 04:02:06;;;;;;;4.28;2.60;;;;;;;0.58;83.89;96915.32;1736710;82;21394;-80
2021/12/20 04:04:33;;;;;;;5.42;2.60;;;;;;;0.59;83.64;96917.08;1761778;81;20946;-81
2021/12/20 04:06:59;;;;;;;3.72;2.50;;;;;;;0.54;82.74;96927.94;1766977;81;21021;-81
2021/12/20 04:09:26;;;;;;;6.80;2.77;;;;;;;0.52;83.03;96919.28;1767119;81;21009;-81
2021/12/20 04:11:52;;;;;;;4.28;2.27;;;;;;;0.55;82.31;96927.09;1767168;81;20973;-81
2021/12/20 04:14:19;;;;;;;5.87;2.92;;;;;;;0.50;81.65;96922.35;1745288;81;21060;-80
2021/12/20 04:16:45;;;;;;;3.90;2.50;;;;;;;0.50;81.36;96928.87;1736787;83;21068;-80
2021/12/20 04:19:12;;;;;;;4.40;2.33;;;;;;;0.55;81.55;96918.39;1736802;83;21013;-80
2021/12/20 04:21:38;;;;;;;4.28;2.02;;;;;;;0.51;79.86;96924.08;1738111;81;21410;-81
2021/12/20 04:24:05;;;;;;;3.42;2.27;;;;;;;0.53;80.54;96919.70;1736725;82;21017;-81
2021/12/20 04:26:32;;;;;;;4.00;2.50;;;;;;;0.55;79.77;96935.34;1736849;83;21061;-80
2021/12/20 04:28:58;;;;;;;2.77;1.80;;;;;;;0.56;80.39;96941.86;1736611;83;21013;-81
2021/12/20 04:31:25;;;;;;;5.97;2.52;;;;;;;0.53;80.20;96943.17;1742331;81;20997;-80
2021/12/20 04:33:51;;;;;;;3.42;1.70;;;;;;;0.56;80.31;96946.19;1767088;81;20997;-80
2021/12/20 04:36:18;;;;;;;4.72;2.17;;;;;;;0.48;78.96;96955.37;1767166;81;21034;-81
2021/12/20 04:38:45;;;;;;;3.83;2.50;;;;;;;0.52;79.50;96942.32;1771853;80;20954;-81
2021/12/20 04:41:11;;;;;;;5.28;2.12;;;;;;;0.55;79.79;96932.31;1699926;84;21026;-80
2021/12/20 04:43:38;;;;;;;5.62;2.37;;;;;;;0.50;78.76;96949.73;1707513;83;21511;-81
2021/12/20 04:46:05;;;;;;;4.45;2.40;;;;;;;0.51;79.39;96948.84;1709581;84;21004;-80
2021/12/20 04:48:31;;;;;;;5.20;2.37;;;;;;;0.50;79.35;96938.84;1709759;84;21013;-81
2021/12/20 04:50:58;;;;;;;5.20;2.33;;;;;;;0.49;79.49;96952.76;1709365;84;21007;-80
2021/12/20 04:53:24;;;;;;;6.05;2.62;;;;;;;0.45;78.89;96959.31;1709333;84;21017;-80
2021/12/20 04:55:51;;;;;;;4.25;2.45;;;;;;;0.49;79.26;96956.67;1701675;84;21071;-80
2021/12/20 04:58:18;;;;;;;6.00;2.62;;;;;;;0.49;79.04;96957.09;1681054;85;21054;-81
2021/12/20 05:00:45;;;;;;;4.87;2.72;;;;;;;0.48;79.23;96971.89;1689455;82;21475;-81
2021/12/20 05:03:12;;;;;;;4.78;2.72;;;;;;;0.50;79.25;96974.03;1681069;85;21008;-81
2021/12/20 05:05:38;;;;;;;5.75;2.72;;;;;;;0.52;79.74;96970.13;1680837;85;21428;-81
2021/12/20 05:08:06;;;;;;;5.90;2.72;;;;;;;0.55;79.56;96983.15;1688544;84;21015;-81
2021/12/20 05:10:34;;;;;;;4.47;2.40;;;;;;;0.57;79.37;96985.72;1709446;83;21035;-81
2021/12/20 05:13:05;;;;;;;6.12;3.05;;;;;;;0.56;79.41;96990.52;1709520;83;21034;-80
2021/12/20 05:15:33;;;;;;;5.22;2.95;;;;;;;0.61;79.90;96989.63;1709479;84;21032;-81
2021/12/20 05:18:00;;;;;;;3.92;2.35;;;;;;;0.64;80.03;96980.91;1709484;84;21062;-81
2021/12/20 05:20:27;;;;;;;5.17;2.62;;;;;;;0.65;79.23;96994.38;1698750;84;20959;-81
2021/12/20 05:22:56;;;;;;;5.35;2.45;;;;;;;0.65;79.54;96998.28;1681144;85;21389;-81
2021/12/20 05:25:25;;;;;;;5.78;3.00;;;;;;;0.62;77.06;96998.33;1680714;85;21027;-82
2021/12/20 05:27:54;;;;;;;4.25;2.67;;;;;;;0.63;78.88;97007.41;1681272;84;21003;-82
2021/12/20 05:30:21;;;;;;;4.45;2.72;;;;;;;0.60;78.58;97004.84;1681310;85;21384;-82
2021/12/20 05:32:48;;;;;;;6.20;2.72;;;;;;;0.65;78.69;97006.11;1680997;85;21007;-82
2021/12/20 05:35:17;;;;;;;4.80;2.60;;;;;;;0.65;78.92;97007.41;1680957;84;20955;-82
2021/12/20 05:37:44;;;;;;;4.33;2.70;;;;;;;0.64;78.98;97000.47;1681205;85;21488;-80
2021/12/20 05:40:13;;;;;;;5.70;2.67;;;;;;;0.66;78.57;97002.62;1705244;84;21001;-80
2021/12/20 05:42:40;;;;;;;5.40;2.77;;;;;;;0.64;77.91;97002.66;1729453;81;21030;-80
2021/12/20 05:45:09;;;;;;;4.62;2.77;;;;;;;0.57;78.52;96995.73;1766030;80;21017;-80
2021/12/20 05:47:36;;;;;;;5.08;3.02;;;;;;;0.53;78.10;97003.13;1754741;82;21037;-80
2021/12/20 05:50:05;;;;;;;5.22;2.60;;;;;;;0.51;78.07;97014.02;1753359;82;21426;-80
2021/12/20 05:52:32;;;;;;;5.90;2.50;;;;;;;0.47;77.79;97029.24;1729430;82;21049;-80
2021/12/20 05:54:59;;;;;;;4.12;2.40;;;;;;;0.40;77.11;97023.19;1685068;85;21026;-80
2021/12/20 05:57:26;;;;;;;3.72;2.27;;;;;;;0.38;77.49;97024.49;1712915;82;21029;-80
2021/12/20 05:59:53;;;;;;;5.53;2.45;;;;;;;0.36;77.60;97028.86;1759439;81;21006;-80
2021/12/20 06:02:19;;;;;;;5.40;2.67;;;;;;;0.37;77.62;97027.10;1758735;81;21396;-80
2021/12/20 06:04:50;;;;;;;4.30;2.37;;;;;;;0.35;77.55;97032.77;1759393;81;20975;-80
2021/12/20 06:07:14;;;;;;;4.60;2.55;;;;;;;0.36;77.77;97035.80;1774553;80;21391;-79
2021/12/20 06:09:40;;;;;;;4.45;2.60;;;;;;;0.35;77.68;97043.20;1771363;79;20997;-80
2021/12/20 06:12:09;;;;;;;6.40;2.58;;;;;;;0.33;77.90;97043.66;1738637;81;20982;-80
2021/12/20 06:14:35;;;;;;;4.45;2.00;;;;;;;0.27;76.19;97056.27;1729281;83;21065;-79
2021/12/20 06:17:02;;;;;;;3.50;2.05;;;;;;;0.28;76.45;97051.93;1748158;80;20915;-79
2021/12/20 06:19:29;;;;;;;4.70;2.10;;;;;;;0.22;76.22;97058.90;1759662;81;21006;-80
2021/12/20 06:21:56;;;;;;;3.85;1.98;;;;;;;0.20;76.63;97067.59;1745790;80;21005;-80
2021/12/20 06:24:24;;;;;;;4.30;2.08;;;;;;;0.10;75.31;97076.73;1762086;80;21470;-80
2021/12/20 06:26:51;;;;;;;3.62;2.22;;;;;;;0.10;76.56;97074.13;1746804;81;21455;-81
2021/12/20 06:29:19;;;;;;;4.40;1.90;;;;;;;0.08;77.07;97073.25;1758306;80;21452;-81
2021/12/20 06:31:46;;;;;;;3.58;1.82;;;;;;;0.08;76.78;97082.83;1762272;80;21381;-81
2021/12/20 06:34:13;;;;;;;3.55;2.22;;;;;;;0.04;77.05;97081.94;1769076;79;20974;-81
2021/12/20 06:36:40;;;;;;;4.60;1.65;;;;;;;0.04;77.20;97090.21;1761896;80;20958;-81
2021/12/20 06:39:07;;;;;;;2.58;1.75;;;;;;;0.02;77.27;97095.42;1785178;79;20990;-80
2021/12/20 06:41:34;;;;;;;3.72;1.62;;;;;;;0.04;77.18;97094.97;1738896;79;21061;-81
2021/12/20 06:44:02;;;;;;;4.12;2.17;;;;;;;0.07;76.62;97104.09;1723947;81;21471;-81
2021/12/20 06:46:29;;;;;;;4.03;1.80;;;;;;;0.07;76.15;97107.12;1728405;81;21435;-77
2021/12/20 06:48:56;;;;;;;4.97;2.02;;;;;;;0.05;75.92;97099.33;1763308;81;21455;-77
2021/12/20 06:51:23;;;;;;;4.97;1.82;;;;;;;0.07;75.86;97104.52;1758956;81;21376;-77
2021/12/20 06:53:49;;;;;;;5.00;2.37;;;;;;;0.04;75.29;97111.05;1762183;81;21292;-77
2021/12/20 06:56:16;;;;;;;3.12;1.70;;;;;;;0.08;76.34;97114.94;1752113;81;20985;-76
2021/12/20 06:58:42;;;;;;;3.37;2.00;;;;;;;0.10;76.23;97112.34;1731659;83;21526;-77
2021/12/20 07:01:09;;;;;;;3.65;1.90;;;;;;;0.11;76.19;97112.77;1733995;83;21013;-77
2021/12/20 07:03:35;;;;;;;4.83;2.00;;;;;;;0.18;75.74;97124.05;1698779;84;21079;-78
2021/12/20 07:06:02;;;;;;;4.10;2.08;;;;;;;0.15;75.87;97115.80;1689163;84;20977;-81
2021/12/20 07:08:28;;;;;;;5.65;1.62;;;;;;;0.15;75.61;97118.83;1669659;85;21023;-80
2021/12/20 07:10:55;;;;;;;3.37;1.50;;;;;;;0.08;74.82;97128.42;1688095;84;21441;-80
2021/12/20 07:13:22;;;;;;;3.12;1.72;;;;;;;0.04;74.54;97127.98;1732937;82;20988;-80
2021/12/20 07:15:49;;;;;;;3.55;1.75;;;;;;;0.00;74.84;97129.73;1728319;82;21028;-80
2021/12/20 07:18:15;;;;;;;3.15;1.90;;;;;;;-0.02;74.68;97136.67;1744088;81;20974;-81
2021/12/20 07:20:42;;;;;;;3.20;1.90;;;;;;;-0.02;75.21;97148.39;1750800;81;21526;-81
2021/12/20 07:23:08;;;;;;;4.00;1.52;;;;;;;0.01;75.20;97146.22;1749601;81;20958;-81
2021/12/20 07:25:35;;;;;;;3.45;1.62;;;;;;;0.00;75.23;97142.77;1745605;80;21084;-81
2021/12/20 07:28:02;;;;;;;3.83;1.50;;;;;;;-0.01;74.69;97143.19;1750944;81;20950;-81
2021/12/20 07:30:28;;;;;;;5.47;2.25;;;;;;;0.02;75.32;97157.95;1750354;81;20966;-83
2021/12/20 07:32:55;;;;;;;3.25;1.57;;;;;;;0.05;75.17;97170.09;1744059;81;21033;-81
2021/12/20 07:35:22;;;;;;;2.58;1.37;;;;;;;0.08;75.22;97163.14;1751112;81;21332;-81
2021/12/20 07:37:52;;;;;;;4.30;1.60;;;;;;;0.13;75.13;97154.88;1758139;81;21414;-82
2021/12/20 07:40:19;;;;;;;3.98;1.42;;;;;;;0.12;74.56;97164.00;1749974;81;20962;-81
2021/12/20 07:42:45;;;;;;;3.80;1.70;;;;;;;0.06;73.99;97169.22;1754836;80;21120;-81
2021/12/20 07:45:12;;;;;;;6.90;1.72;;;;;;;0.03;74.20;97161.42;1773119;80;21396;-82
2021/12/20 07:47:38;;;;;;;3.52;1.65;;;;;;;-0.02;74.27;97169.23;1769662;81;21052;-82
2021/12/20 07:50:07;;;;;;;3.20;1.50;;;;;;;-0.02;74.09;97168.81;1782100;80;20977;-80
2021/12/20 07:52:34;;;;;;;5.72;1.45;;;;;;;0.00;74.22;97179.23;1760079;80;20959;-80
2021/12/20 07:55:01;;;;;;;3.22;1.50;;;;;;;0.00;74.23;97181.84;1769093;80;21006;-80
2021/12/20 07:57:27;;;;;;;2.83;1.37;;;;;;;0.05;74.16;97187.91;1759646;81;20981;-82
2021/12/20 07:59:54;;;;;;;2.40;1.50;;;;;;;0.05;73.19;97171.41;1769266;81;21013;-79
2021/12/20 08:02:21;;;;;;;2.52;1.27;;;;;;;0.03;72.99;97187.48;1769918;80;21009;-79
2021/12/20 08:04:50;;;;;;;3.40;1.60;;;;;;;0.01;73.04;97192.69;1782477;80;21442;-80
2021/12/20 08:07:18;;;;;;;3.27;1.40;;;;;;;0.06;73.52;97193.55;1800882;79;21029;-80
2021/12/20 08:09:44;;;;;;;5.42;2.08;;;;;;;0.06;73.26;97196.58;1800709;80;21474;-80
2021/12/20 08:12:11;;;;;;;2.55;1.40;;;;;;;0.04;73.04;97186.15;1800978;80;20986;-80
2021/12/20 08:14:37;;;;;;;4.40;1.77;;;;;;;0.00;72.91;97197.47;1800730;80;20970;-80
2021/12/20 08:17:04;;;;;;;4.15;1.85;;;;;;;0.03;73.21;97197.91;1732846;82;20994;-80
2021/12/20 08:19:30;;;;;;;4.30;1.57;;;;;;;0.04;73.13;97193.12;1698472;82;21057;-81
2021/12/20 08:21:57;;;;;;;4.15;1.22;;;;;;;-0.06;72.29;97211.77;1771207;79;20974;-80
2021/12/20 08:24:23;;;;;;;4.28;2.45;;;;;;;-0.03;72.81;97215.69;1716088;83;21432;-80
2021/12/20 08:26:50;;;;;;;4.30;1.80;;;;;;;-0.06;72.77;97223.50;1697598;83;21033;-81
2021/12/20 08:29:16;;;;;;;2.02;1.20;;;;;;;-0.02;72.90;97231.33;1711193;83;21017;-80
2021/12/20 08:31:43;;;;;;;7.28;2.10;;;;;;;0.01;72.54;97229.58;1720893;83;20995;-81
2021/12/20 08:34:09;;;;;;;2.70;1.75;;;;;;;0.07;73.02;97226.97;1726382;82;21034;-81
2021/12/20 08:36:36;;;;;;;6.25;1.85;;;;;;;0.13;72.86;97237.41;1720113;83;21081;-81
2021/12/20 08:39:03;;;;;;;2.55;1.50;;;;;;;0.19;73.33;97237.40;1732029;82;20990;-80
2021/12/20 08:41:30;;;;;;;4.47;1.60;;;;;;;0.22;73.08;97237.41;1705820;83;21423;-80
2021/12/20 08:43:56;;;;;;;6.30;1.87;;;;;;;0.28;73.09;97243.03;1707782;84;21045;-80
2021/12/20 08:46:23;;;;;;;4.35;1.72;;;;;;;0.31;73.26;97243.05;1714918;82;21057;-80
2021/12/20 08:48:51;;;;;;;3.60;1.75;;;;;;;0.32;72.69;97246.50;1809912;79;20990;-80
2021/12/20 08:51:18;;;;;;;4.03;1.67;;;;;;;0.30;72.95;97243.92;1812429;78;21051;-81
2021/12/20 08:53:45;;;;;;;4.87;1.92;;;;;;;0.32;73.20;97249.10;1698237;82;21110;-81
2021/12/20 08:56:11;;;;;;;4.03;1.80;;;;;;;0.31;72.77;97247.38;1773805;81;21446;-80
2021/12/20 08:58:38;;;;;;;4.53;1.90;;;;;;;0.37;73.29;97247.36;1773530;81;20998;-81
2021/12/20 09:01:04;;;;;;;2.98;1.80;;;;;;;0.42;73.18;97227.83;1774451;81;21020;-81
2021/12/20 09:03:31;;;;;;;3.85;2.17;;;;;;;0.39;73.00;97242.61;1773196;81;21435;-81
2021/12/20 09:05:58;;;;;;;4.33;2.00;;;;;;;0.38;72.62;97234.78;1773588;81;21458;-79
2021/12/20 09:08:24;;;;;;;4.62;1.45;;;;;;;0.36;72.47;97250.42;1773541;79;20938;-80
2021/12/20 09:10:53;;;;;;;3.52;1.70;;;;;;;0.37;72.94;97246.06;1770591;79;21035;-81
2021/12/20 09:13:19;;;;;;;4.40;1.65;;;;;;;0.29;71.63;97249.98;1777190;78;21079;-81
2021/12/20 09:15:45;;;;;;;6.47;1.80;;;;;;;0.27;72.20;97249.13;1780510;79;21478;-80
2021/12/20 09:18:12;;;;;;;3.50;1.70;;;;;;;0.33;72.71;97253.02;1777277;78;21021;-80
2021/12/20 09:20:40;;;;;;;2.22;1.35;;;;;;;0.42;72.00;97252.59;1770144;79;20976;-81
2021/12/20 09:23:11;;;;;;;4.40;1.72;;;;;;;0.45;71.39;97252.14;1722440;82;21439;-81
2021/12/20 09:25:42;;;;;;;2.67;1.72;;;;;;;0.54;72.41;97256.47;1697824;84;21004;-81
2021/12/20 09:28:11;;;;;;;4.35;1.82;;;;;;;0.62;71.64;97258.63;1690736;84;21050;-80
2021/12/20 09:30:40;;;;;;;4.35;1.87;;;;;;;0.62;70.72;97253.42;1693641;84;20995;-81
2021/12/20 09:33:07;;;;;;;3.55;1.60;;;;;;;0.65;70.99;97252.13;1711340;82;21481;-81
2021/12/20 09:35:34;;;;;;;3.50;1.60;;;;;;;0.70;70.75;97252.09;1690599;84;21420;-81
2021/12/20 09:38:06;;;;;;;3.45;1.45;;;;;;;0.70;70.23;97269.51;1700050;84;21441;-81
2021/12/20 09:40:36;;;;;;;3.70;1.70;;;;;;;0.69;69.91;97262.53;1725010;82;20946;-81
2021/12/20 09:43:06;;;;;;;4.67;1.80;;;;;;;0.76;70.67;97257.33;1737974;82;21093;-80
2021/12/20 09:45:34;;;;;;;4.50;1.90;;;;;;;0.81;69.98;97257.72;1717866;82;21077;-81
2021/12/20 09:48:00;;;;;;;3.27;1.70;;;;;;;0.86;69.61;97270.31;1690752;84;21076;-82
2021/12/20 09:50:27;;;;;;;4.62;1.70;;;;;;;0.85;69.22;97247.30;1679431;85;21010;-82
2021/12/20 09:52:54;;;;;;;2.83;1.47;;;;;;;0.85;68.72;97255.55;1694971;83;21010;-81
2021/12/20 09:55:21;;;;;;;9.30;1.65;;;;;;;0.82;67.71;97264.25;1698004;83;21542;-81
2021/12/20 09:57:50;;;;;;;2.83;1.37;;;;;;;0.83;68.10;97265.98;1695075;83;20962;-83
2021/12/20 10:00:21;;;;;;;3.72;1.60;;;;;;;0.86;68.92;97255.55;1711355;83;21002;-78
2021/12/20 10:02:48;;;;;;;3.58;1.20;;;;;;;0.87;67.25;97261.64;1716921;83;21010;-76
2021/12/20 10:05:17;;;;;;;3.75;1.77;;;;;;;0.88;66.77;97268.59;1692052;82;21507;-76
2021/12/20 10:07:50;;;;;;;3.95;1.40;;;;;;;0.90;66.61;97265.53;1681860;84;21025;-76
2021/12/20 10:10:44;;;;;;;2.90;1.50;;;;;;;0.87;66.18;97263.80;1681717;85;21447;-76
2021/12/20 10:13:32;;;;;;;3.30;1.53;;;;;;;0.93;66.44;97256.40;1699247;83;21442;-78
2021/12/20 10:16:03;;;;;;;4.10;1.50;;;;;;;1.01;66.97;97256.38;1733083;82;22178;-80
2021/12/20 10:18:35;;;;;;;2.60;1.10;;;;;;;0.99;65.67;97259.44;1742935;81;21014;-80
2021/12/20 10:21:03;;;;;;;6.65;1.77;;;;;;;0.98;65.62;97250.73;1733757;81;21038;-81
2021/12/20 10:23:33;;;;;;;5.03;1.82;;;;;;;1.04;66.51;97240.27;1687301;83;21057;-75
2021/12/20 10:26:08;;;;;;;2.95;1.10;;;;;;;1.07;65.91;97239.38;1703425;82;21072;-76
2021/12/20 10:28:37;;;;;;;3.53;1.40;;;;;;;1.00;65.35;97241.14;1724026;82;21002;-75
2021/12/20 10:31:11;;;;;;;3.12;1.30;;;;;;;1.04;65.31;97235.05;1708344;83;21085;-76
2021/12/20 10:33:39;;;;;;;;;;;;;;;1.09;65.82;97239.38;1730351;83;20994;-77
2021/12/20 10:36:13;;;;;;;3.90;1.22;;;;;;;1.06;65.21;97242.87;1700786;83;20132;-76
2021/12/20 10:38:42;;;;;;;;;;;;;;;1.08;65.63;97233.73;1743820;81;21094;-77
2021/12/20 10:41:17;;;;;;;2.17;1.30;;;;;;;1.08;64.82;97229.82;1734979;81;20127;-77
2021/12/20 10:43:57;;;;;;;3.33;1.52;;;;;;;1.12;65.51;97239.38;1737998;81;21097;-76
2021/12/20 10:46:27;;;;;;;3.50;1.30;;;;;;;1.20;65.86;97248.48;1734985;81;20978;-77
2021/12/20 10:49:06;;;;;;;3.60;1.50;;;;;;;1.16;65.62;97242.41;1746556;81;21000;-77
2021/12/20 10:51:44;;;;;;;2.85;1.45;;;;;;;1.14;65.32;97239.80;1743774;81;20961;-77
2021/12/20 10:54:15;;;;;;;2.87;1.10;;;;;;;1.16;66.05;97236.73;1752065;81;20999;-76
2021/12/20 10:57:00;;;;;;;3.58;1.82;;;;;;;1.18;66.55;97251.97;1756912;81;21061;-76
2021/12/20 10:59:30;;;;;;;2.98;1.40;;;;;;;1.23;66.48;97236.70;1762233;81;20990;-76
2021/12/20 11:04:36;;;;;;;3.95;1.35;;;;;;;1.26;65.87;97223.65;1732446;81;22116;-76
2021/12/20 11:09:50;;;;;;;2.45;1.50;;;;;;;1.18;65.05;97240.23;1733338;83;21299;-76
2021/12/20 11:12:23;;;;;;;4.70;1.42;;;;;;;1.24;65.51;97237.16;1755070;81;21447;-77
2021/12/20 11:14:54;;;;;;;2.35;1.30;;;;;;;1.12;65.49;97236.31;1753387;81;21017;-76
2021/12/20 11:17:22;;;;;;;5.33;2.10;;;;;;;1.08;65.99;97230.67;1752773;81;21021;-76
2021/12/20 11:19:55;;;;;;;3.70;1.47;;;;;;;1.02;65.65;97259.41;1764680;81;21002;-76
2021/12/20 11:22:24;;;;;;;4.33;1.40;;;;;;;1.00;66.19;97254.64;1742192;81;21045;-76
2021/12/20 11:25:00;;;;;;;2.52;1.22;;;;;;;0.97;66.52;97254.64;1734393;82;21061;-76
2021/12/20 11:27:36;;;;;;;3.50;1.57;;;;;;;0.84;66.75;97257.30;1734439;82;21017;-76
2021/12/20 11:30:17;;;;;;;3.20;1.12;;;;;;;0.69;67.63;97269.93;1734257;83;20990;-76
2021/12/20 11:32:46;;;;;;;4.12;1.45;;;;;;;0.69;67.68;97262.53;1746451;81;21443;-76
2021/12/20 11:35:15;;;;;;;3.42;1.30;;;;;;;0.61;67.79;97279.07;1685524;84;20937;-76
2021/12/20 11:37:42;;;;;;;4.58;1.30;;;;;;;0.68;67.82;97276.45;1683001;84;21469;-77
2021/12/20 11:40:12;;;;;;;2.98;1.32;;;;;;;0.61;67.76;97252.99;1685408;84;20969;-76
2021/12/20 11:42:39;;;;;;;2.80;1.20;;;;;;;0.58;67.69;97259.50;1704288;83;21050;-77
2021/12/20 11:45:11;;;;;;;4.08;1.30;;;;;;;0.56;67.74;97266.48;1698130;84;21481;-76
2021/12/20 11:47:50;;;;;;;3.25;1.57;;;;;;;0.58;67.75;97276.91;1703050;83;21488;-76
2021/12/20 11:50:21;;;;;;;3.62;1.60;;;;;;;0.53;67.96;97287.33;1687380;85;21416;-76
2021/12/20 11:52:52;;;;;;;4.75;2.27;;;;;;;0.56;68.22;97277.33;1687325;84;20963;-76
2021/12/20 11:55:25;;;;;;;6.10;2.05;;;;;;;0.59;68.11;97284.73;1710765;84;20964;-77
2021/12/20 11:57:56;;;;;;;2.77;1.70;;;;;;;0.53;68.50;97292.55;1715960;84;21031;-76
2021/12/20 12:00:31;;;;;;;2.72;1.30;;;;;;;0.54;68.52;97298.19;1705035;84;21077;-77